createdAt,value
2023-05-09T00:00:06.298Z,100.00
2023-05-09T00:02:34.653Z,100.00
2023-05-09T00:05:02.940Z,100.00
2023-05-09T00:07:31.263Z,100.00
2023-05-09T00:09:58.760Z,100.00
2023-05-09T00:12:29.706Z,100.00
2023-05-09T00:14:58.133Z,100.00
2023-05-09T00:17:25.666Z,100.00
2023-05-09T00:19:55.972Z,100.00
2023-05-09T00:22:23.079Z,100.00
2023-05-09T00:24:50.836Z,100.00
2023-05-09T00:27:18.041Z,100.00
2023-05-09T00:29:45.353Z,100.00
2023-05-09T00:32:12.492Z,100.00
2023-05-09T00:34:39.582Z,100.00
2023-05-09T00:37:07.167Z,100.00
2023-05-09T00:39:34.146Z,100.00
2023-05-09T00:42:01.189Z,100.00
2023-05-09T00:44:28.324Z,100.00
2023-05-09T00:46:55.651Z,100.00
2023-05-09T00:49:23.006Z,100.00
2023-05-09T00:51:51.799Z,100.00
2023-05-09T00:54:19.102Z,100.00
2023-05-09T00:56:46.785Z,100.00
2023-05-09T00:59:14.229Z,100.00
2023-05-09T01:01:42.682Z,100.00
2023-05-09T01:04:10.974Z,100.00
2023-05-09T01:07:03.024Z,100.00
2023-05-09T01:09:40.524Z,100.00
2023-05-09T01:12:16.868Z,100.00
2023-05-09T01:15:15.650Z,100.00
2023-05-09T01:18:21.908Z,100.00
2023-05-09T01:21:08.773Z,100.00
2023-05-09T01:23:44.718Z,100.00
2023-05-09T01:26:47.129Z,100.00
2023-05-09T01:29:35.491Z,100.00
2023-05-09T01:32:15.569Z,100.00
2023-05-09T01:34:45.319Z,100.00
2023-05-09T01:37:16.340Z,100.00
2023-05-09T01:39:49.902Z,100.00
2023-05-09T01:42:20.717Z,100.00
2023-05-09T01:44:49.294Z,100.00
2023-05-09T01:47:18.460Z,100.00
2023-05-09T01:49:47.927Z,100.00
2023-05-09T01:52:19.302Z,100.00
2023-05-09T01:54:47.363Z,100.00
2023-05-09T01:57:15.632Z,100.00
2023-05-09T01:59:45.433Z,100.00
2023-05-09T02:02:13.069Z,100.00
2023-05-09T02:04:42.725Z,100.00
2023-05-09T02:07:10.803Z,100.00
2023-05-09T02:09:38.142Z,100.00
2023-05-09T02:12:05.854Z,100.00
2023-05-09T02:14:33.097Z,100.00
2023-05-09T02:17:06.350Z,100.00
2023-05-09T02:19:35.852Z,100.00
2023-05-09T02:22:05.151Z,100.00
2023-05-09T02:24:36.487Z,100.00
2023-05-09T02:27:05.475Z,100.00
2023-05-09T02:29:40.793Z,100.00
2023-05-09T02:32:16.563Z,100.00
2023-05-09T02:34:45.171Z,100.00
2023-05-09T02:37:12.613Z,100.00
2023-05-09T02:39:39.777Z,100.00
2023-05-09T02:42:10.301Z,100.00
2023-05-09T02:44:38.802Z,100.00
2023-05-09T02:47:07.554Z,100.00
2023-05-09T02:49:35.102Z,100.00
2023-05-09T02:52:04.259Z,100.00
2023-05-09T02:54:31.494Z,100.00
2023-05-09T02:56:59.281Z,100.00
2023-05-09T02:59:26.742Z,100.00
2023-05-09T03:01:54.347Z,100.00
2023-05-09T03:04:22.153Z,100.00
2023-05-09T03:06:49.643Z,100.00
2023-05-09T03:09:16.851Z,100.00
2023-05-09T03:11:44.075Z,100.00
2023-05-09T03:14:14.913Z,100.00
2023-05-09T03:16:42.375Z,100.00
2023-05-09T03:19:19.338Z,100.00
2023-05-09T03:21:46.494Z,100.00
2023-05-09T03:24:13.720Z,100.00
2023-05-09T03:26:40.768Z,100.00
2023-05-09T03:29:08.190Z,100.00
2023-05-09T03:31:36.053Z,100.00
2023-05-09T03:34:03.147Z,100.00
2023-05-09T03:36:31.846Z,100.00
2023-05-09T03:39:00.006Z,100.00
2023-05-09T03:41:27.184Z,100.00
2023-05-09T03:43:54.663Z,100.00
2023-05-09T03:46:21.721Z,100.00
2023-05-09T03:48:49.803Z,100.00
2023-05-09T03:51:17.566Z,100.00
2023-05-09T03:53:47.093Z,100.00
2023-05-09T03:56:15.259Z,100.00
2023-05-09T03:58:48.173Z,100.00
2023-05-09T04:03:44.328Z,100.00
2023-05-09T04:06:13.490Z,100.00
2023-05-09T04:08:43.735Z,100.00
2023-05-09T04:11:10.818Z,100.00
2023-05-09T04:13:40.581Z,100.00
2023-05-09T04:16:20.624Z,100.00
2023-05-09T04:18:47.790Z,100.00
2023-05-09T04:21:16.114Z,100.00
2023-05-09T04:23:45.853Z,100.00
2023-05-09T04:26:14.144Z,100.00
2023-05-09T04:28:42.945Z,100.00
2023-05-09T04:31:12.957Z,100.00
2023-05-09T04:33:40.566Z,100.00
2023-05-09T04:36:08.068Z,100.00
2023-05-09T04:38:36.016Z,100.00
2023-05-09T04:41:06.554Z,100.00
2023-05-09T04:43:33.898Z,100.00
2023-05-09T04:46:04.305Z,100.00
2023-05-09T04:48:32.893Z,100.00
2023-05-09T04:51:00.308Z,100.00
2023-05-09T04:53:28.312Z,100.00
2023-05-09T04:55:56.616Z,100.00
2023-05-09T04:58:25.728Z,100.00
2023-05-09T05:00:53.742Z,100.00
2023-05-09T05:03:20.837Z,100.00
2023-05-09T05:05:48.425Z,100.00
2023-05-09T05:08:15.793Z,100.00
2023-05-09T05:10:44.221Z,100.00
2023-05-09T05:13:13.954Z,100.00
2023-05-09T05:15:45.485Z,100.00
2023-05-09T05:18:14.138Z,100.00
2023-05-09T05:20:42.666Z,100.00
2023-05-09T05:23:10.355Z,100.00
2023-05-09T05:25:38.307Z,100.00
2023-05-09T05:28:06.032Z,100.00
2023-05-09T05:30:34.372Z,100.00
2023-05-09T05:33:02.825Z,100.00
2023-05-09T05:35:31.082Z,100.00
2023-05-09T05:37:58.359Z,100.00
2023-05-09T05:40:26.406Z,100.00
2023-05-09T05:42:55.522Z,100.00
2023-05-09T05:45:23.548Z,100.00
2023-05-09T05:47:56.244Z,100.00
2023-05-09T05:50:24.789Z,100.00
2023-05-09T05:52:52.682Z,100.00
2023-05-09T05:55:19.878Z,100.00
2023-05-09T05:57:47.764Z,100.00
2023-05-09T06:00:16.913Z,100.00
2023-05-09T06:02:50.576Z,100.00
2023-05-09T06:05:26.507Z,100.00
2023-05-09T06:07:54.039Z,100.00
2023-05-09T06:10:21.200Z,100.00
2023-05-09T06:12:48.390Z,100.00
2023-05-09T06:15:15.664Z,100.00
2023-05-09T06:17:46.328Z,100.00
2023-05-09T06:20:13.317Z,100.00
2023-05-09T06:22:40.390Z,100.00
2023-05-09T06:25:10.354Z,100.00
2023-05-09T06:27:38.389Z,100.00
2023-05-09T06:30:23.856Z,100.00
2023-05-09T06:32:53.469Z,100.00
2023-05-09T06:35:21.182Z,100.00
2023-05-09T06:37:49.007Z,100.00
2023-05-09T06:40:17.369Z,100.00
2023-05-09T06:42:45.166Z,100.00
2023-05-09T06:45:12.586Z,100.00
2023-05-09T06:47:39.868Z,100.00
2023-05-09T06:50:08.002Z,100.00
2023-05-09T06:52:34.971Z,100.00
2023-05-09T06:55:02.037Z,100.00
2023-05-09T06:57:29.209Z,100.00
2023-05-09T06:59:56.771Z,100.00
2023-05-09T07:02:23.972Z,100.00
2023-05-09T07:04:51.145Z,100.00
2023-05-09T07:07:18.208Z,100.00
2023-05-09T07:09:45.787Z,100.00
2023-05-09T07:12:12.823Z,100.00
2023-05-09T07:14:44.189Z,100.00
2023-05-09T07:17:21.691Z,100.00
2023-05-09T07:19:50.983Z,100.00
2023-05-09T07:22:18.050Z,100.00
2023-05-09T07:24:46.851Z,100.00
2023-05-09T07:27:14.091Z,100.00
2023-05-09T07:29:41.074Z,100.00
2023-05-09T07:32:08.531Z,100.00
2023-05-09T07:34:36.445Z,100.00
2023-05-09T07:37:03.706Z,100.00
2023-05-09T07:39:31.222Z,100.00
2023-05-09T07:41:58.567Z,100.00
2023-05-09T07:44:25.987Z,100.00
2023-05-09T07:46:55.399Z,100.00
2023-05-09T07:49:22.831Z,100.00
2023-05-09T07:51:50.133Z,100.00
2023-05-09T07:54:17.338Z,100.00
2023-05-09T07:56:44.325Z,100.00
2023-05-09T07:59:12.295Z,100.00
2023-05-09T08:01:39.660Z,100.00
2023-05-09T08:04:08.941Z,100.00
2023-05-09T08:06:36.704Z,100.00
2023-05-09T08:09:04.719Z,100.00
2023-05-09T08:11:36.344Z,98.64
2023-05-09T08:14:03.558Z,100.00
2023-05-09T08:16:30.969Z,92.33
2023-05-09T08:18:58.198Z,89.18
2023-05-09T08:21:25.367Z,86.95
2023-05-09T08:23:52.952Z,82.70
2023-05-09T08:26:20.009Z,82.38
2023-05-09T08:28:47.126Z,81.21
2023-05-09T08:31:16.476Z,79.72
2023-05-09T08:33:43.438Z,78.69
2023-05-09T08:36:11.033Z,75.93
2023-05-09T08:38:40.498Z,76.95
2023-05-09T08:41:07.509Z,80.65
2023-05-09T08:43:38.710Z,79.57
2023-05-09T08:46:11.142Z,79.10
2023-05-09T08:48:38.973Z,79.76
2023-05-09T08:51:07.552Z,80.36
2023-05-09T08:53:34.975Z,83.40
2023-05-09T08:56:03.893Z,82.18
2023-05-09T08:58:32.271Z,85.95
2023-05-09T09:00:59.663Z,80.98
2023-05-09T09:03:27.296Z,83.01
2023-05-09T09:05:55.223Z,75.75
2023-05-09T09:08:23.126Z,74.80
2023-05-09T09:10:50.650Z,73.72
2023-05-09T09:13:18.444Z,78.48
2023-05-09T09:15:47.119Z,78.19
2023-05-09T09:18:23.569Z,75.38
2023-05-09T09:20:57.894Z,72.65
2023-05-09T09:23:26.749Z,71.97
2023-05-09T09:26:07.027Z,71.75
2023-05-09T09:28:34.288Z,73.15
2023-05-09T09:31:02.464Z,69.14
2023-05-09T09:33:30.229Z,73.02
2023-05-09T09:35:57.735Z,74.92
2023-05-09T09:38:25.356Z,78.53
2023-05-09T09:40:52.321Z,77.95
2023-05-09T09:43:19.749Z,78.19
2023-05-09T09:45:53.087Z,79.83
2023-05-09T09:48:36.356Z,75.06
2023-05-09T09:51:11.385Z,72.71
2023-05-09T09:53:43.525Z,70.90
2023-05-09T09:56:11.093Z,71.01
2023-05-09T09:58:38.185Z,73.22
2023-05-09T10:01:20.832Z,65.69
2023-05-09T10:03:48.195Z,68.07
2023-05-09T10:06:16.719Z,70.53
2023-05-09T10:08:49.314Z,71.14
2023-05-09T10:11:16.545Z,71.15
2023-05-09T10:13:44.589Z,70.68
2023-05-09T10:16:13.000Z,83.09
2023-05-09T10:18:42.898Z,89.16
2023-05-09T10:21:14.772Z,82.53
2023-05-09T10:23:47.386Z,90.00
2023-05-09T10:26:25.617Z,85.09
2023-05-09T10:28:56.730Z,86.27
2023-05-09T10:31:27.298Z,85.45
2023-05-09T10:33:55.929Z,80.30
2023-05-09T10:36:26.227Z,75.95
2023-05-09T10:38:56.637Z,75.44
2023-05-09T10:41:24.157Z,78.22
2023-05-09T10:43:51.824Z,77.03
2023-05-09T10:46:19.012Z,78.74
2023-05-09T10:48:48.132Z,77.63
2023-05-09T10:51:16.469Z,82.99
2023-05-09T10:53:51.652Z,79.93
2023-05-09T10:56:35.936Z,80.36
2023-05-09T10:59:03.184Z,79.13
2023-05-09T11:01:35.359Z,76.20
2023-05-09T11:04:10.532Z,81.12
2023-05-09T11:06:45.406Z,77.76
2023-05-09T11:09:33.176Z,79.04
2023-05-09T11:12:11.469Z,82.68
2023-05-09T11:14:45.896Z,81.21
2023-05-09T11:17:30.625Z,80.40
2023-05-09T11:20:05.622Z,76.24
2023-05-09T11:22:39.881Z,76.93
2023-05-09T11:25:13.447Z,72.74
2023-05-09T11:27:48.970Z,69.92
2023-05-09T11:30:19.652Z,75.52
2023-05-09T11:32:51.577Z,71.70
2023-05-09T11:35:21.978Z,73.79
2023-05-09T11:38:06.299Z,80.08
2023-05-09T11:40:34.806Z,69.94
2023-05-09T11:43:02.204Z,69.43
2023-05-09T11:45:33.619Z,68.21
2023-05-09T11:48:01.250Z,74.83
2023-05-09T11:50:28.784Z,75.85
2023-05-09T11:52:56.020Z,73.19
2023-05-09T11:55:23.228Z,71.00
2023-05-09T11:57:54.505Z,59.40
2023-05-09T12:00:24.138Z,67.65
2023-05-09T12:02:52.735Z,69.92
2023-05-09T12:05:22.771Z,68.59
2023-05-09T12:07:50.031Z,65.26
2023-05-09T12:10:23.117Z,63.25
2023-05-09T12:12:53.455Z,67.42
2023-05-09T12:15:21.815Z,68.48
2023-05-09T12:18:05.871Z,66.47
2023-05-09T12:20:48.140Z,62.36
2023-05-09T12:23:15.650Z,63.58
2023-05-09T12:25:56.827Z,60.45
2023-05-09T12:28:25.659Z,62.08
2023-05-09T12:30:54.132Z,62.17
2023-05-09T12:33:22.276Z,66.49
2023-05-09T12:36:06.123Z,65.49
2023-05-09T12:38:33.782Z,64.46
2023-05-09T12:41:10.716Z,64.87
2023-05-09T12:43:49.291Z,63.94
2023-05-09T12:46:20.745Z,60.90
2023-05-09T12:48:49.337Z,62.83
2023-05-09T12:51:21.697Z,64.74
2023-05-09T12:53:49.152Z,64.00
2023-05-09T12:56:18.700Z,63.80
2023-05-09T12:58:54.562Z,66.96
2023-05-09T13:01:27.978Z,58.83
2023-05-09T13:04:05.961Z,61.19
2023-05-09T13:06:33.586Z,60.54
2023-05-09T13:09:02.371Z,56.86
2023-05-09T13:11:30.009Z,57.84
2023-05-09T13:13:57.515Z,60.49
2023-05-09T13:16:25.081Z,57.22
2023-05-09T13:18:52.102Z,62.57
2023-05-09T13:21:19.565Z,59.50
2023-05-09T13:23:46.522Z,60.84
2023-05-09T13:26:13.778Z,54.98
2023-05-09T13:28:40.909Z,57.97
2023-05-09T13:31:08.456Z,59.50
2023-05-09T13:33:35.511Z,58.66
2023-05-09T13:36:02.623Z,57.90
2023-05-09T13:38:35.370Z,57.73
2023-05-09T13:41:02.761Z,65.09
2023-05-09T13:43:30.306Z,62.00
2023-05-09T13:45:57.309Z,63.46
2023-05-09T13:48:24.460Z,59.01
2023-05-09T13:50:51.605Z,61.80
2023-05-09T13:53:18.706Z,61.62
2023-05-09T13:55:46.338Z,61.95
2023-05-09T13:58:13.458Z,65.00
2023-05-09T14:00:40.711Z,64.16
2023-05-09T14:03:07.952Z,67.04
2023-05-09T14:05:35.131Z,62.38
2023-05-09T14:08:02.142Z,61.24
2023-05-09T14:10:29.443Z,62.94
2023-05-09T14:12:56.969Z,65.21
2023-05-09T14:15:24.179Z,64.86
2023-05-09T14:17:51.296Z,67.54
2023-05-09T14:20:18.706Z,61.42
2023-05-09T14:22:46.558Z,64.46
2023-05-09T14:25:13.581Z,62.37
2023-05-09T14:27:40.579Z,63.78
2023-05-09T14:30:08.692Z,66.19
2023-05-09T14:32:35.718Z,63.55
2023-05-09T14:35:02.803Z,62.02
2023-05-09T14:37:30.308Z,61.49
2023-05-09T14:39:57.410Z,64.29
2023-05-09T14:42:24.568Z,66.20
2023-05-09T14:44:51.552Z,67.99
2023-05-09T14:47:18.633Z,69.13
2023-05-09T14:49:45.644Z,66.38
2023-05-09T14:52:13.716Z,65.22
2023-05-09T14:54:41.213Z,62.42
2023-05-09T14:57:08.428Z,67.45
2023-05-09T14:59:37.078Z,59.16
2023-05-09T15:02:04.566Z,66.62
2023-05-09T15:04:31.752Z,62.85
2023-05-09T15:06:59.410Z,71.21
2023-05-09T15:09:26.855Z,63.98
2023-05-09T15:11:55.199Z,63.87
2023-05-09T15:14:22.323Z,59.91
2023-05-09T15:16:51.761Z,65.23
2023-05-09T15:19:19.184Z,68.69
2023-05-09T15:21:46.380Z,65.62
2023-05-09T15:24:13.403Z,77.07
2023-05-09T15:26:40.415Z,100.00
2023-05-09T15:29:07.955Z,100.00
2023-05-09T15:31:36.454Z,77.97
2023-05-09T15:34:04.392Z,100.00
2023-05-09T15:36:33.822Z,100.00
2023-05-09T15:39:00.912Z,93.26
2023-05-09T15:41:28.748Z,100.00
2023-05-09T15:43:56.389Z,100.00
2023-05-09T15:46:29.966Z,100.00
2023-05-09T15:48:58.403Z,100.00
2023-05-09T15:51:25.796Z,100.00
2023-05-09T15:53:55.169Z,49.76
2023-05-09T15:56:22.295Z,53.09
2023-05-09T15:58:49.295Z,58.68
2023-05-09T16:01:16.424Z,57.58
2023-05-09T16:03:43.596Z,53.35
2023-05-09T16:06:13.193Z,59.26
2023-05-09T16:08:40.187Z,55.24
2023-05-09T16:11:07.290Z,58.96
2023-05-09T16:13:36.051Z,68.02
2023-05-09T16:16:03.794Z,57.73
2023-05-09T16:18:31.555Z,55.09
2023-05-09T16:20:59.619Z,54.85
2023-05-09T16:23:26.808Z,54.78
2023-05-09T16:25:53.895Z,54.40
2023-05-09T16:28:23.456Z,53.75
2023-05-09T16:30:51.581Z,57.71
2023-05-09T16:33:18.730Z,68.06
2023-05-09T16:35:45.809Z,92.01
2023-05-09T16:38:13.233Z,87.87
2023-05-09T16:40:40.587Z,73.41
2023-05-09T16:43:07.914Z,69.81
2023-05-09T16:45:35.078Z,100.00
2023-05-09T16:48:02.585Z,96.78
2023-05-09T16:50:29.842Z,75.36
2023-05-09T16:52:57.256Z,75.72
2023-05-09T16:55:24.403Z,72.29
2023-05-09T16:57:52.534Z,72.15
2023-05-09T17:00:20.099Z,86.84
2023-05-09T17:02:47.547Z,77.43
2023-05-09T17:05:16.030Z,76.89
2023-05-09T17:07:45.845Z,74.07
2023-05-09T17:10:13.124Z,75.98
2023-05-09T17:12:40.389Z,100.00
2023-05-09T17:15:08.749Z,78.34
2023-05-09T17:17:36.114Z,88.57
2023-05-09T17:20:04.407Z,74.89
2023-05-09T17:22:32.007Z,100.00
2023-05-09T17:24:59.341Z,99.56
2023-05-09T17:27:27.122Z,100.00
2023-05-09T17:29:55.429Z,56.49
2023-05-09T17:32:23.523Z,78.40
2023-05-09T17:34:51.020Z,49.42
2023-05-09T17:37:18.436Z,51.27
2023-05-09T17:39:46.068Z,52.50
2023-05-09T17:42:14.028Z,48.62
2023-05-09T17:44:43.702Z,49.92
2023-05-09T17:47:14.022Z,47.81
2023-05-09T17:49:41.452Z,46.75
2023-05-09T17:52:09.417Z,45.59
2023-05-09T17:54:37.418Z,45.96
2023-05-09T17:57:04.872Z,54.05
2023-05-09T17:59:32.280Z,53.09
2023-05-09T18:01:59.717Z,52.18
2023-05-09T18:04:30.250Z,56.39
2023-05-09T18:06:57.774Z,55.44
2023-05-09T18:09:25.195Z,66.70
2023-05-09T18:11:52.351Z,82.77
2023-05-09T18:14:19.713Z,100.00
2023-05-09T18:16:47.085Z,93.68
2023-05-09T18:19:14.574Z,87.39
2023-05-09T18:21:47.160Z,80.54
2023-05-09T18:24:19.384Z,94.29
2023-05-09T18:26:52.401Z,92.95
2023-05-09T18:29:20.117Z,100.00
2023-05-09T18:31:47.627Z,43.83
2023-05-09T18:34:15.204Z,44.06
2023-05-09T18:36:45.429Z,43.43
2023-05-09T18:39:19.369Z,58.48
2023-05-09T18:41:53.145Z,73.16
2023-05-09T18:44:22.301Z,95.53
2023-05-09T18:46:53.558Z,59.40
2023-05-09T18:49:32.857Z,66.83
2023-05-09T18:52:00.682Z,69.76
2023-05-09T18:54:33.584Z,62.17
2023-05-09T18:57:06.741Z,78.20
2023-05-09T18:59:59.478Z,60.68
2023-05-09T19:02:32.808Z,62.99
2023-05-09T19:08:19.980Z,65.60
2023-05-09T19:11:34.488Z,62.32
2023-05-09T19:14:04.105Z,71.72
2023-05-09T19:17:14.939Z,56.48
2023-05-09T19:19:50.152Z,55.09
2023-05-09T19:22:38.620Z,55.41
2023-05-09T19:25:06.857Z,58.35
2023-05-09T19:27:34.559Z,58.58
2023-05-09T19:30:02.658Z,56.57
2023-05-09T19:32:37.561Z,54.80
2023-05-09T19:35:13.001Z,56.14
2023-05-09T19:37:40.656Z,56.10
2023-05-09T19:40:14.995Z,54.73
2023-05-09T19:43:04.398Z,55.63
2023-05-09T19:45:37.367Z,54.73
2023-05-09T19:48:30.289Z,58.05
2023-05-09T19:51:51.495Z,57.73
2023-05-09T19:54:24.441Z,58.35
2023-05-09T19:56:52.168Z,57.50
2023-05-09T19:59:23.448Z,58.20
2023-05-09T20:01:53.276Z,58.19
2023-05-09T20:04:21.944Z,57.41
2023-05-09T20:06:49.474Z,59.12
2023-05-09T20:09:20.919Z,58.60
2023-05-09T20:11:51.055Z,64.55
2023-05-09T20:14:18.911Z,57.86
2023-05-09T20:16:46.378Z,58.33
2023-05-09T20:19:14.817Z,58.10
2023-05-09T20:21:42.494Z,58.05
2023-05-09T20:24:12.526Z,56.38
2023-05-09T20:26:40.020Z,60.19
2023-05-09T20:29:07.586Z,69.09
2023-05-09T20:31:37.439Z,65.20
2023-05-09T20:34:04.824Z,74.73
2023-05-09T20:36:32.581Z,98.96
2023-05-09T20:39:00.131Z,100.00
2023-05-09T20:41:27.215Z,93.26
2023-05-09T20:43:55.922Z,100.00
2023-05-09T20:46:23.419Z,100.00
2023-05-09T20:48:51.023Z,100.00
2023-05-09T20:51:18.464Z,100.00
2023-05-09T20:53:45.991Z,100.00
2023-05-09T20:56:13.361Z,100.00
2023-05-09T20:58:41.063Z,100.00
2023-05-09T21:01:08.630Z,100.00
2023-05-09T21:03:36.749Z,100.00
2023-05-09T21:06:04.331Z,100.00
2023-05-09T21:08:31.801Z,100.00
2023-05-09T21:10:59.170Z,100.00
2023-05-09T21:13:28.892Z,100.00
2023-05-09T21:15:56.021Z,100.00
2023-05-09T21:18:23.398Z,98.18
2023-05-09T21:20:50.996Z,100.00
2023-05-09T21:23:18.690Z,100.00
2023-05-09T21:25:46.113Z,100.00
2023-05-09T21:28:15.665Z,100.00
2023-05-09T21:30:42.807Z,100.00
2023-05-09T21:33:09.781Z,100.00
2023-05-09T21:35:37.188Z,100.00
2023-05-09T21:38:04.206Z,100.00
2023-05-09T21:40:31.607Z,100.00
2023-05-09T21:42:59.132Z,100.00
2023-05-09T21:45:26.295Z,100.00
2023-05-09T21:47:53.377Z,100.00
2023-05-09T21:50:20.840Z,100.00
2023-05-09T21:52:47.862Z,100.00
2023-05-09T21:55:15.400Z,100.00
2023-05-09T21:57:42.772Z,100.00
2023-05-09T22:00:16.770Z,100.00
2023-05-09T22:02:44.234Z,100.00
2023-05-09T22:05:11.976Z,100.00
2023-05-09T22:07:39.238Z,100.00
2023-05-09T22:10:07.100Z,100.00
2023-05-09T22:12:34.552Z,100.00
2023-05-09T22:15:01.708Z,100.00
2023-05-09T22:17:28.708Z,100.00
2023-05-09T22:19:55.796Z,100.00
2023-05-09T22:22:27.001Z,100.00
2023-05-09T22:24:54.204Z,100.00
2023-05-09T22:27:21.388Z,100.00
2023-05-09T22:29:48.337Z,100.00
2023-05-09T22:32:15.347Z,100.00
2023-05-09T22:34:42.836Z,100.00
2023-05-09T22:37:10.014Z,100.00
2023-05-09T22:39:37.372Z,100.00
2023-05-09T22:42:04.724Z,100.00
2023-05-09T22:44:32.512Z,90.74
2023-05-09T22:46:59.530Z,100.00
2023-05-09T22:49:26.676Z,100.00
2023-05-09T22:51:53.644Z,93.80
2023-05-09T22:54:22.497Z,88.06
2023-05-09T22:56:49.506Z,90.91
2023-05-09T22:59:17.143Z,100.00
2023-05-09T23:01:44.181Z,100.00
2023-05-09T23:04:11.542Z,100.00
2023-05-09T23:06:38.900Z,97.16
2023-05-09T23:09:06.301Z,100.00
2023-05-09T23:11:33.671Z,100.00
2023-05-09T23:14:01.085Z,73.80
2023-05-09T23:16:28.488Z,60.97
2023-05-09T23:18:55.928Z,52.37
2023-05-09T23:21:23.263Z,46.81
2023-05-09T23:23:50.845Z,46.49
2023-05-09T23:26:18.205Z,55.04
2023-05-09T23:28:45.683Z,56.97
2023-05-09T23:31:13.105Z,78.40
2023-05-09T23:33:40.512Z,69.25
2023-05-09T23:36:07.929Z,67.49
2023-05-09T23:38:35.471Z,77.45
2023-05-09T23:41:02.563Z,74.20
2023-05-09T23:43:29.500Z,81.20
2023-05-09T23:45:56.963Z,79.07
2023-05-09T23:48:24.619Z,100.00
2023-05-09T23:50:51.710Z,100.00
2023-05-09T23:53:19.023Z,100.00
2023-05-09T23:55:46.096Z,86.38
2023-05-09T23:58:13.124Z,100.00
